createdAt,value
2019-05-10T00:01:31.409Z,99039.77
2019-05-10T00:04:17.461Z,99045.44
2019-05-10T00:07:03.450Z,99049.24
2019-05-10T00:09:31.216Z,99051.98
2019-05-10T00:12:06.638Z,99056.82
2019-05-10T00:14:46.503Z,99056.28
2019-05-10T00:17:20.081Z,99054.67
2019-05-10T00:19:48.006Z,99056.83
2019-05-10T00:22:16.115Z,99057.90
2019-05-10T00:24:44.311Z,99052.51
2019-05-10T00:27:12.182Z,99056.55
2019-05-10T00:29:40.166Z,99051.67
2019-05-10T00:32:07.927Z,99054.67
2019-05-10T00:34:35.816Z,99060.09
2019-05-10T00:37:03.941Z,99059.55
2019-05-10T00:39:31.772Z,99057.91
2019-05-10T00:41:59.767Z,99058.72
2019-05-10T00:44:27.624Z,99061.42
2019-05-10T00:46:55.694Z,99064.94
2019-05-10T00:49:23.504Z,99066.85
2019-05-10T00:51:51.498Z,99067.66
2019-05-10T00:54:19.308Z,99067.38
2019-05-10T00:56:47.308Z,99066.02
2019-05-10T00:59:15.102Z,99067.08
2019-05-10T01:01:42.910Z,99070.89
2019-05-10T01:04:10.701Z,99057.63
2019-05-10T01:06:38.690Z,99065.21
2019-05-10T01:09:06.503Z,99067.66
2019-05-10T01:11:34.504Z,99069.27
2019-05-10T01:14:02.393Z,99069.27
2019-05-10T01:16:30.318Z,99075.80
2019-05-10T01:18:58.120Z,99077.14
2019-05-10T01:21:26.138Z,99083.61
2019-05-10T01:23:53.898Z,99081.17
2019-05-10T01:26:21.738Z,99081.47
2019-05-10T01:28:49.529Z,99084.14
2019-05-10T01:31:17.648Z,99090.65
2019-05-10T01:33:45.425Z,99093.63
2019-05-10T01:36:13.411Z,99090.93
2019-05-10T01:38:41.215Z,99093.86
2019-05-10T01:41:09.167Z,99089.80
2019-05-10T01:43:37.140Z,99097.09
2019-05-10T01:46:06.291Z,99110.63
2019-05-10T01:48:34.230Z,99108.26
2019-05-10T01:51:02.197Z,99110.89
2019-05-10T01:53:30.237Z,99115.17
2019-05-10T01:55:58.093Z,99127.11
2019-05-10T01:58:26.021Z,99118.69
2019-05-10T02:00:53.818Z,99124.13
2019-05-10T02:03:21.590Z,99127.36
2019-05-10T02:05:49.440Z,99127.02
2019-05-10T02:08:17.492Z,99129.70
2019-05-10T02:10:45.349Z,99133.18
2019-05-10T02:13:13.319Z,99134.00
2019-05-10T02:15:41.109Z,99143.97
2019-05-10T02:18:08.925Z,99143.97
2019-05-10T02:20:36.768Z,99147.20
2019-05-10T02:23:04.740Z,99147.27
2019-05-10T02:25:32.541Z,99154.27
2019-05-10T02:28:00.581Z,99155.35
2019-05-10T02:30:28.447Z,99154.29
2019-05-10T02:32:56.455Z,99152.35
2019-05-10T02:35:24.271Z,99154.29
2019-05-10T02:37:52.276Z,99159.05
2019-05-10T02:40:20.095Z,99155.78
2019-05-10T02:42:48.160Z,99151.56
2019-05-10T02:45:16.472Z,99158.45
2019-05-10T02:47:44.455Z,99160.93
2019-05-10T02:50:12.442Z,99164.69
2019-05-10T02:52:40.269Z,99165.22
2019-05-10T02:55:08.173Z,99164.33
2019-05-10T02:57:37.016Z,99167.95
2019-05-10T03:00:07.431Z,99172.64
2019-05-10T03:02:36.487Z,99177.48
2019-05-10T03:05:05.691Z,99177.48
2019-05-10T03:07:37.836Z,99182.16
2019-05-10T03:10:09.473Z,99192.72
2019-05-10T03:12:39.830Z,99198.39
2019-05-10T03:15:08.548Z,99200.73
2019-05-10T03:17:39.552Z,99195.98
2019-05-10T03:20:07.578Z,99203.57
2019-05-10T03:22:42.375Z,99203.80
2019-05-10T03:25:11.609Z,99205.95
2019-05-10T03:27:39.977Z,99214.72
2019-05-10T03:30:09.090Z,99213.37
2019-05-10T03:32:37.078Z,99217.42
2019-05-10T03:35:05.666Z,99223.04
2019-05-10T03:37:34.214Z,99218.65
2019-05-10T03:40:02.693Z,99220.23
2019-05-10T03:42:30.679Z,99220.10
2019-05-10T03:44:58.614Z,99230.86
2019-05-10T03:47:26.570Z,99238.64
2019-05-10T03:49:54.471Z,99233.03
2019-05-10T03:52:22.287Z,99235.28
2019-05-10T03:54:50.269Z,99234.69
2019-05-10T03:57:18.046Z,99244.98
2019-05-10T03:59:46.069Z,99239.53
2019-05-10T04:02:13.825Z,99243.82
2019-05-10T04:04:41.680Z,99247.98
2019-05-10T04:07:09.457Z,99246.33
2019-05-10T04:09:37.473Z,99247.98
2019-05-10T04:12:05.288Z,99252.07
2019-05-10T04:14:33.259Z,99258.31
2019-05-10T04:17:01.062Z,99253.13
2019-05-10T04:19:29.026Z,99257.58
2019-05-10T04:21:56.840Z,99265.17
2019-05-10T04:24:24.689Z,99266.69
2019-05-10T04:26:52.496Z,99274.84
2019-05-10T04:29:20.519Z,99274.61
2019-05-10T04:31:48.334Z,99278.34
2019-05-10T04:34:16.326Z,99279.36
2019-05-10T04:36:44.114Z,99284.55
2019-05-10T04:39:12.152Z,99282.99
2019-05-10T04:41:39.932Z,99286.56
2019-05-10T04:44:07.959Z,99286.62
2019-05-10T04:46:35.746Z,99286.88
2019-05-10T04:49:03.580Z,99290.73
2019-05-10T04:51:31.335Z,99298.14
2019-05-10T04:56:29.612Z,99304.66
2019-05-10T04:58:57.425Z,99307.86
2019-05-10T05:01:25.475Z,99313.05
2019-05-10T05:03:53.309Z,99326.82
2019-05-10T05:06:21.246Z,99324.70
2019-05-10T05:08:49.196Z,99331.44
2019-05-10T05:11:17.282Z,99329.77
2019-05-10T05:13:45.076Z,99329.47
2019-05-10T05:16:12.908Z,99331.65
2019-05-10T05:18:40.752Z,99336.50
2019-05-10T05:21:08.553Z,99341.09
2019-05-10T05:23:36.367Z,99342.25
2019-05-10T05:26:04.184Z,99343.63
2019-05-10T05:28:31.971Z,99345.84
2019-05-10T05:30:59.791Z,99351.95
2019-05-10T05:33:27.638Z,99352.74
2019-05-10T05:35:55.518Z,99350.69
2019-05-10T05:38:23.354Z,99359.25
2019-05-10T05:40:51.160Z,99363.15
2019-05-10T05:43:18.953Z,99356.88
2019-05-10T05:45:46.771Z,99360.44
2019-05-10T05:48:15.974Z,99362.61
2019-05-10T05:50:44.306Z,99367.50
2019-05-10T05:53:12.103Z,99374.82
2019-05-10T05:55:39.925Z,99370.70
2019-05-10T05:58:25.283Z,99375.88
2019-05-10T06:00:44.067Z,99374.53
2019-05-10T06:03:07.245Z,99377.80
2019-05-10T06:05:37.286Z,99375.91
2019-05-10T06:08:15.889Z,99384.88
2019-05-10T06:10:34.431Z,99379.17
2019-05-10T06:13:02.232Z,99380.80
2019-05-10T06:15:31.592Z,99387.58
2019-05-10T06:18:03.716Z,99386.73
2019-05-10T06:20:29.193Z,99395.41
2019-05-10T06:23:06.466Z,99389.92
2019-05-10T06:25:39.450Z,99390.66
2019-05-10T06:27:56.429Z,99387.45
2019-05-10T06:30:24.252Z,99387.09
2019-05-10T06:32:53.250Z,99387.28
2019-05-10T06:35:22.889Z,99390.53
2019-05-10T06:37:50.672Z,99398.83
2019-05-10T06:40:33.434Z,99397.24
2019-05-10T06:42:48.334Z,99405.83
2019-05-10T06:45:16.498Z,99403.32
2019-05-10T06:47:47.840Z,99410.22
2019-05-10T06:50:15.491Z,99414.44
2019-05-10T06:52:43.303Z,99404.69
2019-05-10T06:55:11.296Z,99414.75
2019-05-10T06:57:39.256Z,99415.61
2019-05-10T07:00:08.085Z,99411.79
2019-05-10T07:02:36.283Z,99407.19
2019-05-10T07:05:04.083Z,99410.51
2019-05-10T07:07:43.297Z,99411.48
2019-05-10T07:10:10.318Z,99408.36
2019-05-10T07:12:31.704Z,99419.57
2019-05-10T07:15:03.373Z,99419.89
2019-05-10T07:17:29.219Z,99421.95
2019-05-10T07:19:57.042Z,99413.80
2019-05-10T07:22:27.080Z,99414.41
2019-05-10T07:24:57.334Z,99417.48
2019-05-10T07:27:24.655Z,99414.50
2019-05-10T07:29:52.493Z,99420.52
2019-05-10T07:32:22.133Z,99412.67
2019-05-10T07:34:58.991Z,99421.64
2019-05-10T07:37:19.985Z,99424.81
2019-05-10T07:39:47.735Z,99414.53
2019-05-10T07:42:15.611Z,99416.47
2019-05-10T07:44:46.717Z,99410.12
2019-05-10T07:47:14.113Z,99411.49
2019-05-10T07:49:41.905Z,99411.54
2019-05-10T07:52:09.737Z,99419.41
2019-05-10T07:54:45.380Z,99433.28
2019-05-10T07:57:07.255Z,99429.55
2019-05-10T07:59:49.515Z,99426.30
2019-05-10T08:02:12.127Z,99432.09
2019-05-10T08:04:34.463Z,99434.60
2019-05-10T08:07:02.145Z,99433.66
2019-05-10T08:09:31.791Z,99428.80
2019-05-10T08:12:05.156Z,99429.20
2019-05-10T08:14:31.796Z,99431.58
2019-05-10T08:17:05.918Z,99427.56
2019-05-10T08:19:32.916Z,99443.20
2019-05-10T08:22:01.762Z,99447.18
2019-05-10T08:24:28.882Z,99446.34
2019-05-10T08:27:06.639Z,99446.08
2019-05-10T08:29:26.416Z,99443.48
2019-05-10T08:31:56.072Z,99455.34
2019-05-10T08:34:28.923Z,99437.54
2019-05-10T08:36:53.756Z,99457.78
2019-05-10T08:39:22.352Z,99453.08
2019-05-10T08:42:01.301Z,99458.00
2019-05-10T08:44:21.790Z,99453.31
2019-05-10T08:46:49.736Z,99456.60
2019-05-10T08:49:22.151Z,99466.66
2019-05-10T08:51:49.290Z,99469.29
2019-05-10T08:54:16.934Z,99475.04
2019-05-10T08:56:46.776Z,99481.21
2019-05-10T08:59:19.106Z,99484.31
2019-05-10T09:01:46.519Z,99486.98
2019-05-10T09:04:13.943Z,99486.03
2019-05-10T09:06:42.123Z,99491.20
2019-05-10T09:09:12.356Z,99488.78
2019-05-10T09:11:43.916Z,99495.23
2019-05-10T09:14:12.329Z,99497.64
2019-05-10T09:16:43.352Z,99500.59
2019-05-10T09:19:08.857Z,99496.83
2019-05-10T09:21:40.966Z,99505.20
2019-05-10T09:24:06.757Z,99513.52
2019-05-10T09:26:37.758Z,99519.89
2019-05-10T09:29:05.531Z,99523.75
2019-05-10T09:31:33.281Z,99535.19
2019-05-10T09:34:02.386Z,99536.70
2019-05-10T09:36:31.687Z,99534.63
2019-05-10T09:39:00.204Z,99536.76
2019-05-10T09:41:36.133Z,99536.51
2019-05-10T09:43:57.837Z,99533.34
2019-05-10T09:46:25.915Z,99541.93
2019-05-10T09:49:03.875Z,99541.58
2019-05-10T09:51:25.489Z,99541.19
2019-05-10T09:53:53.207Z,99543.42
2019-05-10T09:56:21.020Z,99544.68
2019-05-10T09:58:48.841Z,99541.17
2019-05-10T10:01:21.153Z,99546.44
2019-05-10T10:03:47.712Z,99543.89
2019-05-10T10:06:15.662Z,99552.87
2019-05-10T10:08:48.583Z,99547.66
2019-05-10T10:11:15.898Z,99546.56
2019-05-10T10:13:43.963Z,99540.72
2019-05-10T10:16:14.802Z,99554.22
2019-05-10T10:18:42.499Z,99544.69
2019-05-10T10:21:13.030Z,99567.59
2019-05-10T10:23:40.026Z,99573.77
2019-05-10T10:26:12.522Z,99569.20
2019-05-10T10:28:39.686Z,99564.71
2019-05-10T10:31:08.459Z,99570.12
2019-05-10T10:33:37.974Z,99566.36
2019-05-10T10:36:09.954Z,99567.58
2019-05-10T10:38:37.113Z,99561.19
2019-05-10T10:41:05.380Z,99555.88
2019-05-10T10:43:33.204Z,99556.88
2019-05-10T10:46:01.053Z,99562.86
2019-05-10T10:48:28.816Z,99568.80
2019-05-10T10:50:58.708Z,99572.05
2019-05-10T10:53:28.207Z,99590.57
2019-05-10T10:56:02.539Z,99587.62
2019-05-10T10:58:27.525Z,99586.55
2019-05-10T11:00:55.444Z,99582.66
2019-05-10T11:03:23.921Z,99584.13
2019-05-10T11:05:53.035Z,99590.95
2019-05-10T11:08:20.824Z,99589.05
2019-05-10T11:10:50.665Z,99584.63
2019-05-10T11:13:29.034Z,99572.59
2019-05-10T11:15:48.144Z,99577.30
2019-05-10T11:18:15.995Z,99581.95
2019-05-10T11:20:49.323Z,99589.47
2019-05-10T11:23:16.207Z,99585.64
2019-05-10T11:25:54.387Z,99587.01
2019-05-10T11:28:12.893Z,99591.01
2019-05-10T11:30:40.720Z,99601.96
2019-05-10T11:33:23.820Z,99603.11
2019-05-10T11:35:38.303Z,99597.39
2019-05-10T11:38:06.603Z,99595.59
2019-05-10T11:40:35.964Z,99598.84
2019-05-10T11:43:03.811Z,99600.78
2019-05-10T11:45:35.207Z,99599.66
2019-05-10T11:48:02.212Z,99595.03
2019-05-10T11:50:34.963Z,99596.87
2019-05-10T11:53:00.985Z,99598.38
2019-05-10T11:55:30.936Z,99596.16
2019-05-10T11:58:03.373Z,99606.75
2019-05-10T12:00:31.909Z,99599.75
2019-05-10T12:03:07.775Z,99605.25
2019-05-10T12:05:27.713Z,99615.62
2019-05-10T12:07:55.601Z,99608.84
2019-05-10T12:13:06.155Z,99598.06
2019-05-10T12:15:25.506Z,99592.98
2019-05-10T12:17:58.873Z,99597.63
2019-05-10T12:20:26.824Z,99604.80
2019-05-10T12:22:52.358Z,99600.80
2019-05-10T12:25:38.028Z,99609.77
2019-05-10T12:26:57.042Z,99600.91
2019-05-10T12:27:52.330Z,99617.23
2019-05-10T12:30:21.542Z,99611.30
2019-05-10T12:33:04.639Z,99608.89
2019-05-10T12:35:21.351Z,99612.45
2019-05-10T12:37:53.859Z,99605.14
2019-05-10T12:40:19.027Z,99613.44
2019-05-10T12:42:47.370Z,99614.25
2019-05-10T12:45:15.951Z,99621.28
2019-05-10T12:47:43.758Z,99623.59
2019-05-10T12:50:12.030Z,99623.98
2019-05-10T12:52:42.966Z,99614.34
2019-05-10T12:55:09.554Z,99624.39
2019-05-10T12:57:37.407Z,99632.03
2019-05-10T13:00:12.255Z,99630.72
2019-05-10T13:02:35.887Z,99648.16
2019-05-10T13:05:04.079Z,99644.49
2019-05-10T13:07:31.899Z,99653.98
2019-05-10T13:10:03.651Z,99654.38
2019-05-10T13:12:29.528Z,99670.79
2019-05-10T13:14:57.470Z,99677.44
2019-05-10T13:17:25.306Z,99686.43
2019-05-10T13:19:58.411Z,99685.58
2019-05-10T13:22:22.954Z,99698.98
2019-05-10T13:24:50.769Z,99695.59
2019-05-10T13:27:18.622Z,99703.61
2019-05-10T13:29:52.790Z,99694.22
2019-05-10T13:32:20.687Z,99687.57
2019-05-10T13:34:48.428Z,99691.25
2019-05-10T13:37:23.031Z,99692.89
2019-05-10T13:39:45.986Z,99704.35
2019-05-10T13:42:13.820Z,99701.28
2019-05-10T13:44:43.103Z,99698.61
2019-05-10T13:47:11.366Z,99700.88
2019-05-10T13:49:39.210Z,99699.17
2019-05-10T13:52:07.079Z,99696.20
2019-05-10T13:54:37.586Z,99691.42
2019-05-10T13:57:05.557Z,99681.61
2019-05-10T13:59:33.396Z,99688.00
2019-05-10T14:02:01.274Z,99687.03
2019-05-10T14:04:34.154Z,99700.66
2019-05-10T14:06:58.846Z,99713.59
2019-05-10T14:09:26.694Z,99719.39
2019-05-10T14:11:54.604Z,99719.78
2019-05-10T14:14:26.466Z,99721.33
2019-05-10T14:16:52.205Z,99715.27
2019-05-10T14:19:22.835Z,99717.11
2019-05-10T14:21:49.853Z,99720.83
2019-05-10T14:24:17.644Z,99721.09
2019-05-10T14:26:45.496Z,99730.43
2019-05-10T14:29:13.349Z,99731.96
2019-05-10T14:31:43.641Z,99735.23
2019-05-10T14:34:15.303Z,99734.14
2019-05-10T14:36:43.360Z,99737.92
2019-05-10T14:39:10.907Z,99730.95
2019-05-10T14:41:39.968Z,99727.68
2019-05-10T14:44:08.024Z,99731.24
2019-05-10T14:46:35.989Z,99730.84
2019-05-10T14:49:10.010Z,99726.25
2019-05-10T14:51:49.351Z,99721.81
2019-05-10T14:54:06.635Z,99726.15
2019-05-10T14:56:33.181Z,99722.62
2019-05-10T14:59:02.167Z,99712.88
2019-05-10T15:01:29.976Z,99709.42
2019-05-10T15:03:57.857Z,99709.97
2019-05-10T15:06:30.852Z,99711.75
2019-05-10T15:08:55.430Z,99710.24
2019-05-10T15:11:26.478Z,99714.45
2019-05-10T15:13:53.015Z,99721.62
2019-05-10T15:16:27.200Z,99728.52
2019-05-10T15:18:50.548Z,99731.05
2019-05-10T15:21:18.389Z,99728.77
2019-05-10T15:23:46.206Z,99737.13
2019-05-10T15:26:14.365Z,99732.70
2019-05-10T15:28:42.800Z,99746.61
2019-05-10T15:31:10.775Z,99736.08
2019-05-10T15:33:40.937Z,99738.27
2019-05-10T15:36:08.804Z,99743.74
2019-05-10T15:38:40.499Z,99742.31
2019-05-10T15:41:06.446Z,99741.48
2019-05-10T15:43:34.349Z,99743.23
2019-05-10T15:46:02.237Z,99747.34
2019-05-10T15:48:30.145Z,99736.95
2019-05-10T15:50:58.092Z,99742.36
2019-05-10T15:53:27.370Z,99729.66
2019-05-10T15:55:59.009Z,99735.52
2019-05-10T15:58:25.148Z,99740.86
2019-05-10T16:00:52.984Z,99738.80
2019-05-10T16:03:20.914Z,99746.64
2019-05-10T16:05:59.885Z,99744.26
2019-05-10T16:08:23.530Z,99744.63
2019-05-10T16:10:48.320Z,99748.27
2019-05-10T16:13:23.291Z,99745.47
2019-05-10T16:15:45.956Z,99741.81
2019-05-10T16:18:13.846Z,99748.27
2019-05-10T16:20:41.734Z,99748.55
2019-05-10T16:23:11.241Z,99749.50
2019-05-10T16:25:42.943Z,99746.70
2019-05-10T16:28:09.097Z,99755.04
2019-05-10T16:30:36.979Z,99759.08
2019-05-10T16:33:09.728Z,99773.48
2019-05-10T16:35:38.745Z,99773.25
2019-05-10T16:38:04.669Z,99771.11
2019-05-10T16:40:32.734Z,99773.06
2019-05-10T16:43:00.614Z,99778.77
2019-05-10T16:45:28.438Z,99779.25
2019-05-10T16:47:56.335Z,99783.27
2019-05-10T16:50:26.095Z,99787.90
2019-05-10T16:52:59.467Z,99795.91
2019-05-10T16:55:23.589Z,99803.05
2019-05-10T16:57:51.424Z,99808.63
2019-05-10T17:00:19.531Z,99818.45
2019-05-10T17:02:47.373Z,99816.50
2019-05-10T17:05:17.216Z,99823.55
2019-05-10T17:07:44.943Z,99828.47
2019-05-10T17:10:13.095Z,99836.59
2019-05-10T17:12:40.909Z,99838.39
2019-05-10T17:15:08.937Z,99838.97
2019-05-10T17:17:38.975Z,99841.39
2019-05-10T17:20:13.251Z,99848.48
2019-05-10T17:22:36.670Z,99845.79
2019-05-10T17:25:05.486Z,99853.87
2019-05-10T17:27:33.348Z,99855.47
2019-05-10T17:30:01.195Z,99861.39
2019-05-10T17:32:29.009Z,99861.50
2019-05-10T17:34:59.410Z,99871.10
2019-05-10T17:37:29.766Z,99874.65
2019-05-10T17:39:56.253Z,99872.92
2019-05-10T17:42:24.066Z,99875.14
2019-05-10T17:44:55.114Z,99880.50
2019-05-10T17:47:21.645Z,99880.77
2019-05-10T17:49:49.578Z,99882.16
2019-05-10T17:52:17.368Z,99882.65
2019-05-10T17:54:45.407Z,99887.73
2019-05-10T17:57:16.636Z,99894.83
2019-05-10T17:59:47.115Z,99903.50
2019-05-10T18:02:12.923Z,99892.48
2019-05-10T18:04:40.769Z,99899.27
2019-05-10T18:07:08.605Z,99888.73
2019-05-10T18:09:36.432Z,99901.11
2019-05-10T18:12:04.276Z,99904.49
2019-05-10T18:14:32.105Z,99909.58
2019-05-10T18:16:59.937Z,99905.78
2019-05-10T18:19:27.782Z,99916.17
2019-05-10T18:22:00.879Z,99909.64
2019-05-10T18:24:30.262Z,99915.23
2019-05-10T18:26:55.115Z,99907.70
2019-05-10T18:29:22.906Z,99905.95
2019-05-10T18:31:56.339Z,99910.66
2019-05-10T18:34:20.400Z,99913.29
2019-05-10T18:36:51.604Z,99913.54
2019-05-10T18:39:17.942Z,99913.20
2019-05-10T18:41:46.510Z,99906.22
2019-05-10T18:44:16.042Z,99906.52
2019-05-10T18:46:43.933Z,99904.06
2019-05-10T18:49:11.752Z,99911.46
2019-05-10T18:51:39.994Z,99902.34
2019-05-10T18:54:07.825Z,99911.39
2019-05-10T18:56:38.630Z,99915.78
2019-05-10T18:59:07.591Z,99921.09
2019-05-10T19:01:38.712Z,99914.24
2019-05-10T19:04:07.433Z,99932.43
2019-05-10T19:06:35.881Z,99934.22
2019-05-10T19:09:05.680Z,99940.63
2019-05-10T19:11:39.147Z,99937.67
2019-05-10T19:14:04.946Z,99946.27
2019-05-10T19:16:34.329Z,99954.87
2019-05-10T19:19:03.769Z,99956.17
2019-05-10T19:21:32.617Z,99959.24
2019-05-10T19:24:00.588Z,99959.16
2019-05-10T19:26:29.767Z,99960.18
2019-05-10T19:29:05.445Z,99967.94
2019-05-10T19:31:31.768Z,99973.12
2019-05-10T19:33:59.677Z,99975.27
2019-05-10T19:36:27.636Z,99971.73
2019-05-10T19:38:55.464Z,99971.46
2019-05-10T19:41:25.661Z,99972.20
2019-05-10T19:43:55.990Z,99977.39
2019-05-10T19:46:22.852Z,99978.96
2019-05-10T19:48:50.648Z,99976.88
2019-05-10T19:51:18.665Z,99974.62
2019-05-10T19:53:46.500Z,99980.50
2019-05-10T19:56:14.320Z,99972.27
2019-05-10T19:58:42.137Z,99979.35
2019-05-10T20:01:09.952Z,99975.75
2019-05-10T20:03:37.771Z,99969.13
2019-05-10T20:06:05.553Z,99970.55
2019-05-10T20:08:33.387Z,99979.53
2019-05-10T20:11:01.240Z,99985.52
2019-05-10T20:13:29.093Z,99988.95
2019-05-10T20:15:56.909Z,99989.55
2019-05-10T20:18:24.751Z,99989.78
2019-05-10T20:20:52.561Z,99991.50
2019-05-10T20:23:20.393Z,99996.19
2019-05-10T20:25:48.211Z,99993.84
2019-05-10T20:28:16.029Z,99989.55
2019-05-10T20:30:43.803Z,99991.18
2019-05-10T20:33:11.797Z,99993.42
2019-05-10T20:35:39.597Z,99990.17
2019-05-10T20:38:07.405Z,99992.87
2019-05-10T20:40:37.169Z,99991.73
2019-05-10T20:43:05.020Z,99995.20
2019-05-10T20:45:32.831Z,99988.95
2019-05-10T20:48:00.658Z,99987.35
2019-05-10T20:50:29.283Z,99991.51
2019-05-10T20:52:57.088Z,99981.77
2019-05-10T20:55:24.892Z,99988.80
2019-05-10T20:57:52.702Z,99982.98
2019-05-10T21:00:23.902Z,99984.23
2019-05-10T21:02:50.290Z,99987.47
2019-05-10T21:05:18.098Z,99991.55
2019-05-10T21:07:45.922Z,99993.14
2019-05-10T21:10:13.804Z,99981.31
2019-05-10T21:12:41.609Z,99981.60
2019-05-10T21:15:09.587Z,99976.38
2019-05-10T21:17:37.445Z,99976.38
2019-05-10T21:20:05.434Z,99972.38
2019-05-10T21:22:33.248Z,99967.88
2019-05-10T21:25:01.057Z,99968.28
2019-05-10T21:27:28.826Z,99963.87
2019-05-10T21:29:56.835Z,99967.69
2019-05-10T21:32:24.630Z,99968.89
2019-05-10T21:34:52.456Z,99970.64
2019-05-10T21:37:20.260Z,99969.27
2019-05-10T21:39:48.067Z,99975.72
2019-05-10T21:42:15.830Z,99976.99
2019-05-10T21:44:43.634Z,99979.38
2019-05-10T21:47:11.474Z,99986.14
2019-05-10T21:49:39.310Z,99991.52
2019-05-10T21:52:07.122Z,99993.64
2019-05-10T21:54:34.932Z,99995.92
2019-05-10T21:57:02.779Z,100002.02
2019-05-10T21:59:30.772Z,100001.98
2019-05-10T22:01:58.605Z,100008.06
2019-05-10T22:04:26.397Z,100012.77
2019-05-10T22:06:54.203Z,100011.77
2019-05-10T22:09:22.005Z,100015.45
2019-05-10T22:11:49.815Z,100026.84
2019-05-10T22:14:17.635Z,100030.91
2019-05-10T22:16:45.467Z,100032.08
2019-05-10T22:19:13.455Z,100025.17
2019-05-10T22:21:41.241Z,100028.88
2019-05-10T22:24:09.064Z,100029.92
2019-05-10T22:26:37.679Z,100033.10
2019-05-10T22:29:05.524Z,100030.41
2019-05-10T22:31:33.608Z,100026.70
2019-05-10T22:34:01.411Z,100027.53
2019-05-10T22:36:29.247Z,100030.23
2019-05-10T22:39:06.743Z,100039.34
2019-05-10T22:41:27.082Z,100034.10
2019-05-10T22:43:54.876Z,100036.45
2019-05-10T22:46:22.703Z,100041.73
2019-05-10T22:48:50.509Z,100041.44
2019-05-10T22:51:18.313Z,100043.38
2019-05-10T22:53:59.073Z,100039.22
2019-05-10T22:56:15.862Z,100039.95
2019-05-10T22:58:43.692Z,100033.50
2019-05-10T23:01:11.568Z,100028.86
2019-05-10T23:03:39.352Z,100016.58
2019-05-10T23:06:07.163Z,100016.05
2019-05-10T23:08:34.953Z,100011.02
2019-05-10T23:11:02.795Z,100017.07
2019-05-10T23:13:30.582Z,100023.06
2019-05-10T23:15:58.454Z,100034.59
2019-05-10T23:18:26.372Z,100033.77
2019-05-10T23:20:54.196Z,100043.81
2019-05-10T23:23:21.980Z,100044.89
2019-05-10T23:25:49.915Z,100034.76
2019-05-10T23:28:17.695Z,100033.37
2019-05-10T23:30:45.508Z,100039.22
2019-05-10T23:33:13.313Z,100040.13
2019-05-10T23:35:41.174Z,100048.11
2019-05-10T23:38:08.973Z,100054.50
2019-05-10T23:40:36.800Z,100046.16
2019-05-10T23:43:04.616Z,100045.20
2019-05-10T23:45:32.420Z,100043.21
2019-05-10T23:48:00.260Z,100029.88
2019-05-10T23:50:28.056Z,100023.53
2019-05-10T23:52:55.893Z,99999.47
2019-05-10T23:55:23.684Z,99998.17
2019-05-10T23:57:51.536Z,100005.12
